Time;durP1;ratioP1;P1;durP2;ratioP2;P2;SDS_P1;SDS_P2;PMS_P1;PMS_P2;Temp;Humidity;BMP_temperature;BMP_pressure;BME280_temperature;BME280_humidity;BME280_pressure;Samples;Min_cycle;Max_cycle;Signal;HPM_P1;HPM_P2
2023/03/14 00:00:07;;;;;;;;;2.33;2.33;;;;;13.62;100.00;99022.19;5079918;28;45382;-78
2023/03/14 00:02:33;;;;;;;;;3.00;2.67;;;;;13.69;100.00;99030.03;5081366;27;45366;-79
2023/03/14 00:04:58;;;;;;;;;1.33;1.33;;;;;13.69;100.00;99020.19;5079319;28;46029;-78
2023/03/14 00:07:24;;;;;;;;;5.00;3.00;;;;;13.74;100.00;99032.84;5079353;28;48365;-80
2023/03/14 00:09:50;;;;;;;;;4.67;2.67;;;;;13.73;100.00;99007.97;5080988;27;45349;-79
2023/03/14 00:12:15;;;;;;;;;1.33;1.00;;;;;13.71;100.00;99003.94;5081090;27;45654;-79
2023/03/14 00:14:42;;;;;;;;;2.00;2.00;;;;;13.72;100.00;99006.38;5080742;27;45358;-78
2023/03/14 00:17:07;;;;;;;;;1.33;1.33;;;;;13.70;100.00;98995.09;5073402;27;46126;-79
2023/03/14 00:19:33;;;;;;;;;1.00;1.00;;;;;13.75;100.00;98995.22;5072677;28;45928;-79
2023/03/14 00:21:58;;;;;;;;;2.33;1.33;;;;;13.73;100.00;99002.63;5080461;28;45306;-78
2023/03/14 00:24:23;;;;;;;;;2.00;1.00;;;;;13.72;100.00;98993.03;5080210;28;45580;-80
2023/03/14 00:26:49;;;;;;;;;1.00;1.00;;;;;13.73;100.00;98989.28;5080637;28;45448;-79
2023/03/14 00:29:14;;;;;;;;;2.00;2.00;;;;;13.60;100.00;98970.88;5080382;28;45177;-78
2023/03/14 00:31:39;;;;;;;;;1.67;1.00;;;;;13.65;100.00;98989.69;5079294;28;45199;-79
2023/03/14 00:34:04;;;;;;;;;1.00;1.00;;;;;13.55;100.00;98974.25;5095878;27;46334;-79
2023/03/14 00:36:30;;;;;;;;;0.00;0.00;;;;;13.50;100.00;98980.31;5079965;28;53296;-80
2023/03/14 00:38:55;;;;;;;;;0.33;0.33;;;;;13.44;100.00;98973.22;5080355;28;47426;-80
2023/03/14 00:41:22;;;;;;;;;1.00;1.00;;;;;13.50;100.00;98979.50;5080655;27;45195;-80
2023/03/14 00:43:48;;;;;;;;;0.00;0.00;;;;;13.44;100.00;98981.22;5079009;28;46198;-79
2023/03/14 00:46:13;;;;;;;;;3.00;0.00;;;;;13.45;100.00;98969.53;5092518;27;48286;-79
2023/03/14 00:48:39;;;;;;;;;1.00;1.00;;;;;13.41;100.00;98964.88;5071661;28;45515;-78
2023/03/14 00:51:06;;;;;;;;;1.00;0.33;;;;;13.41;100.00;98960.34;5080064;28;45345;-78
2023/03/14 00:53:34;;;;;;;;;3.00;2.00;;;;;13.39;100.00;98957.91;5080133;27;45369;-79
2023/03/14 00:56:03;;;;;;;;;1.00;1.00;;;;;13.39;100.00;98949.91;5079679;27;45267;-79
2023/03/14 00:58:28;;;;;;;;;2.00;1.00;;;;;13.34;100.00;98947.16;5079974;27;45471;-80
2023/03/14 01:00:54;;;;;;;;;1.67;0.00;;;;;13.40;100.00;98953.41;5065844;27;49351;-79
2023/03/14 01:03:19;;;;;;;;;2.00;2.00;;;;;13.42;100.00;98959.31;5078779;28;46600;-79
2023/03/14 01:05:44;;;;;;;;;2.00;2.00;;;;;13.37;100.00;98945.84;5079562;27;45263;-80
2023/03/14 01:08:11;;;;;;;;;1.00;1.00;;;;;13.38;100.00;98952.84;5078358;28;57978;-79
2023/03/14 01:10:41;;;;;;;;;2.00;2.00;;;;;13.36;100.00;98965.59;5078644;28;45462;-78
2023/03/14 01:13:06;;;;;;;;;1.00;0.00;;;;;13.37;100.00;98956.53;5079963;28;45278;-79
2023/03/14 01:15:36;;;;;;;;;2.00;1.67;;;;;13.37;100.00;98953.88;5078156;28;48138;-79
2023/03/14 01:18:02;;;;;;;;;1.33;1.33;;;;;13.37;100.00;98961.88;5079340;27;45393;-79
2023/03/14 01:20:27;;;;;;;;;2.00;1.00;;;;;13.29;100.00;98931.03;5079892;27;45341;-79
2023/03/14 01:22:53;;;;;;;;;3.00;3.00;;;;;13.33;100.00;98953.53;5066257;27;45577;-79
2023/03/14 01:25:18;;;;;;;;;2.00;1.67;;;;;13.32;100.00;98943.09;5077976;28;48921;-79
2023/03/14 01:27:44;;;;;;;;;1.00;1.00;;;;;13.32;100.00;98945.78;5077361;28;45566;-80
2023/03/14 01:30:11;;;;;;;;;2.00;1.00;;;;;13.39;100.00;98963.25;5078087;27;45258;-79
2023/03/14 01:32:37;;;;;;;;;3.00;2.33;;;;;13.34;100.00;98954.34;5078067;28;46001;-79
2023/03/14 01:35:04;;;;;;;;;2.67;2.67;;;;;13.35;100.00;98959.44;5077469;27;48407;-79
2023/03/14 01:37:29;;;;;;;;;1.67;1.00;;;;;13.39;100.00;98967.78;5077127;28;45377;-79
2023/03/14 01:39:55;;;;;;;;;2.00;1.33;;;;;13.36;100.00;98970.94;5074239;28;45383;-79
2023/03/14 01:42:20;;;;;;;;;3.33;2.00;;;;;13.33;100.00;98960.72;5072503;28;45446;-79
2023/03/14 01:44:57;;;;;;;;;2.67;2.33;;;;;13.37;100.00;98967.22;5078906;28;54909;-79
2023/03/14 01:47:23;;;;;;;;;3.00;1.00;;;;;13.38;100.00;98979.53;5077708;28;45999;-79
2023/03/14 01:50:06;;;;;;;;;2.67;1.33;;;;;13.37;100.00;98962.69;5078385;27;45469;-79
2023/03/14 01:52:52;;;;;;;;;3.33;2.00;;;;;13.38;100.00;98974.19;5079084;27;45623;-79
2023/03/14 01:55:24;;;;;;;;;2.00;2.00;;;;;13.42;100.00;98970.00;5078888;27;45981;-79
2023/03/14 01:57:56;;;;;;;;;2.00;2.00;;;;;13.38;100.00;98966.97;5079332;27;45434;-79
2023/03/14 02:00:24;;;;;;;;;2.33;1.00;;;;;13.42;100.00;98986.00;5077595;28;45268;-78
2023/03/14 02:02:53;;;;;;;;;0.67;0.67;;;;;13.41;100.00;98978.22;5078917;27;45576;-79
2023/03/14 02:05:22;;;;;;;;;1.00;1.00;;;;;13.37;100.00;98973.38;5077694;28;47024;-78
2023/03/14 02:07:57;;;;;;;;;3.00;2.33;;;;;13.35;100.00;98972.78;5079199;27;45676;-79
2023/03/14 02:10:27;;;;;;;;;0.33;0.33;;;;;13.40;100.00;98974.75;5077925;27;45261;-79
2023/03/14 02:12:56;;;;;;;;;1.00;1.00;;;;;13.40;100.00;98972.06;5078772;27;45417;-79
2023/03/14 02:15:21;;;;;;;;;1.33;1.33;;;;;13.36;100.00;98971.75;5077299;28;47474;-80
2023/03/14 02:17:47;;;;;;;;;0.67;0.67;;;;;13.31;100.00;98960.13;5077833;28;45774;-79
2023/03/14 02:20:15;;;;;;;;;4.00;1.00;;;;;13.36;100.00;98966.41;5077639;27;45256;-79
2023/03/14 02:22:44;;;;;;;;;1.00;1.00;;;;;13.35;100.00;98970.09;5078424;27;45417;-79
2023/03/14 02:25:19;;;;;;;;;2.67;1.00;;;;;13.35;100.00;98972.78;5078037;27;45395;-79
2023/03/14 02:27:46;;;;;;;;;2.33;2.33;;;;;13.26;100.00;98963.53;5076955;28;45549;-79
2023/03/14 02:30:18;;;;;;;;;1.00;1.00;;;;;13.30;100.00;98961.19;5078504;27;45305;-79
2023/03/14 02:32:47;;;;;;;;;1.00;1.00;;;;;13.34;100.00;98973.00;5077625;27;45626;-79
2023/03/14 02:35:18;;;;;;;;;1.33;1.00;;;;;13.32;100.00;98967.91;5064565;28;46397;-79
2023/03/14 02:38:09;;;;;;;;;3.67;2.00;;;;;13.36;100.00;98973.59;5076579;28;46459;-79
2023/03/14 02:40:34;;;;;;;;;2.33;2.33;;;;;13.33;100.00;98963.41;5080563;28;45323;-79
2023/03/14 02:42:59;;;;;;;;;3.00;3.00;;;;;13.32;100.00;98964.44;5080810;27;47338;-79
2023/03/14 02:45:31;;;;;;;;;1.00;1.00;;;;;13.32;100.00;98975.13;5081952;28;51814;-79
2023/03/14 02:48:04;;;;;;;;;3.67;2.67;;;;;13.22;100.00;98957.03;5079771;28;45359;-80
2023/03/14 02:50:33;;;;;;;;;2.00;2.00;;;;;13.18;100.00;98967.38;5079599;28;45600;-80
2023/03/14 02:52:58;;;;;;;;;1.67;1.00;;;;;13.20;100.00;98967.16;5080255;28;46006;-80
2023/03/14 02:55:25;;;;;;;;;3.00;1.00;;;;;13.30;100.00;98964.69;5081669;27;46293;-80
2023/03/14 02:57:50;;;;;;;;;1.33;1.00;;;;;13.31;100.00;98965.47;5081570;27;45377;-79
2023/03/14 03:00:16;;;;;;;;;1.67;1.33;;;;;13.23;100.00;98956.00;5078816;27;51311;-78
2023/03/14 03:02:42;;;;;;;;;4.33;1.00;;;;;13.23;100.00;98967.47;5080081;28;46124;-79
2023/03/14 03:05:07;;;;;;;;;1.00;1.00;;;;;13.24;100.00;98979.78;5081564;28;45397;-80
2023/03/14 03:07:33;;;;;;;;;0.33;0.33;;;;;13.24;100.00;98971.78;5080773;28;45333;-79
2023/03/14 03:09:58;;;;;;;;;1.67;1.00;;;;;13.26;100.00;98963.53;5081208;27;45390;-78
2023/03/14 03:12:23;;;;;;;;;2.00;0.33;;;;;13.29;100.00;98979.06;5080110;28;45827;-80
2023/03/14 03:14:49;;;;;;;;;2.00;2.00;;;;;13.31;100.00;98973.47;5079665;28;53702;-80
2023/03/14 03:17:14;;;;;;;;;1.33;1.33;;;;;13.32;100.00;98967.91;5081375;27;46030;-80
2023/03/14 03:19:40;;;;;;;;;1.33;0.67;;;;;13.31;100.00;98962.81;5080725;27;45288;-78
2023/03/14 03:22:05;;;;;;;;;3.67;1.00;;;;;13.30;100.00;98961.19;5080954;27;45409;-79
2023/03/14 03:24:30;;;;;;;;;1.33;1.00;;;;;13.31;100.00;98968.97;5081192;27;45297;-79
2023/03/14 03:26:56;;;;;;;;;1.00;1.00;;;;;13.31;100.00;98968.97;5081517;27;45306;-79
2023/03/14 03:29:21;;;;;;;;;0.50;0.00;;;;;13.31;100.00;98955.63;5081227;27;48061;-79
2023/03/14 03:31:46;;;;;;;;;1.00;1.00;;;;;13.31;100.00;98963.63;5079856;28;46495;-79
2023/03/14 03:34:13;;;;;;;;;2.33;1.00;;;;;13.35;100.00;98975.44;5081436;28;51720;-80
2023/03/14 03:36:38;;;;;;;;;1.00;1.00;;;;;13.33;100.00;98966.06;5081665;27;45437;-80
2023/03/14 03:39:04;;;;;;;;;2.00;0.00;;;;;13.34;100.00;98968.50;5081872;28;46362;-79
2023/03/14 03:41:30;;;;;;;;;2.00;0.00;;;;;13.31;100.00;98979.63;5080285;27;45388;-79
2023/03/14 03:43:56;;;;;;;;;0.33;0.00;;;;;13.29;100.00;98971.03;5081373;27;46130;-79
2023/03/14 03:46:21;;;;;;;;;0.00;0.00;;;;;13.28;100.00;98968.63;5080916;27;45352;-79
2023/03/14 03:48:47;;;;;;;;;1.33;0.67;;;;;13.29;100.00;98970.25;5081212;28;45357;-79
2023/03/14 03:51:16;;;;;;;;;1.00;1.00;;;;;13.25;100.00;98965.38;5079192;27;45843;-79
2023/03/14 03:53:42;;;;;;;;;1.00;1.00;;;;;13.30;100.00;98980.69;5080124;28;48575;-79
2023/03/14 03:56:09;;;;;;;;;2.00;2.00;;;;;13.25;100.00;98968.06;5080758;28;45694;-79
2023/03/14 03:58:35;;;;;;;;;2.00;2.00;;;;;13.30;100.00;98977.22;5081555;27;45310;-80
2023/03/14 04:01:00;;;;;;;;;0.33;0.33;;;;;13.26;100.00;98975.00;5079386;28;45986;-79
2023/03/14 04:03:25;;;;;;;;;1.00;0.00;;;;;13.30;100.00;98991.38;5078440;28;47994;-79
2023/03/14 04:06:04;;;;;;;;;2.00;1.00;;;;;13.31;100.00;98989.50;5081614;27;45352;-79
2023/03/14 04:08:30;;;;;;;;;0.00;0.00;;;;;13.18;100.00;98969.22;5081040;27;45215;-79
2023/03/14 04:10:57;;;;;;;;;0.00;0.00;;;;;13.19;100.00;98987.66;5079558;28;46020;-79
2023/03/14 04:13:23;;;;;;;;;1.00;1.00;;;;;13.16;100.00;98990.81;5081964;27;46154;-79
2023/03/14 04:15:49;;;;;;;;;1.00;0.67;;;;;13.10;100.00;98979.22;5081228;27;45351;-79
2023/03/14 04:18:14;;;;;;;;;1.00;1.00;;;;;13.17;100.00;98988.94;5080062;28;45292;-78
2023/03/14 04:20:39;;;;;;;;;0.00;0.00;;;;;13.11;100.00;98993.38;5081292;28;54235;-79
2023/03/14 04:23:05;;;;;;;;;0.67;0.67;;;;;13.12;100.00;98990.47;5080379;28;50847;-80
2023/03/14 04:25:30;;;;;;;;;0.00;0.00;;;;;13.02;100.00;98981.44;5079162;28;58058;-79
2023/03/14 04:27:55;;;;;;;;;3.00;1.00;;;;;13.19;100.00;99003.66;5081046;27;46959;-80
2023/03/14 04:30:21;;;;;;;;;1.00;0.67;;;;;13.12;100.00;99000.31;5082621;28;52656;-79
2023/03/14 04:32:47;;;;;;;;;3.00;1.67;;;;;13.16;100.00;99014.81;5081969;27;46069;-79
2023/03/14 04:35:12;;;;;;;;;2.00;2.00;;;;;13.21;100.00;99014.94;5081679;28;45390;-79
2023/03/14 04:37:37;;;;;;;;;0.00;0.00;;;;;13.08;100.00;99002.63;5080008;28;45576;-79
2023/03/14 04:40:06;;;;;;;;;1.67;1.00;;;;;13.09;100.00;99012.28;5079489;28;45838;-79
2023/03/14 04:42:31;;;;;;;;;4.00;2.00;;;;;13.09;100.00;99027.47;5081472;28;48480;-79
2023/03/14 04:44:56;;;;;;;;;2.00;2.00;;;;;13.04;100.00;99009.47;5083781;27;45496;-79
2023/03/14 04:47:22;;;;;;;;;4.00;3.00;;;;;13.08;100.00;99023.19;5084229;28;51688;-79
2023/03/14 04:49:47;;;;;;;;;2.67;2.67;;;;;13.06;100.00;99015.41;5083281;27;51516;-79
2023/03/14 04:52:12;;;;;;;;;2.00;2.00;;;;;13.12;100.00;99032.31;5080117;28;56727;-79
2023/03/14 04:54:37;;;;;;;;;2.33;2.33;;;;;13.11;100.00;99034.16;5083293;28;45790;-79
2023/03/14 04:57:03;;;;;;;;;3.00;3.00;;;;;13.09;100.00;99033.63;5084266;28;45264;-79
2023/03/14 04:59:28;;;;;;;;;4.00;4.00;;;;;13.10;100.00;99040.56;5076614;27;45460;-79
2023/03/14 05:01:53;;;;;;;;;3.00;3.00;;;;;13.08;100.00;99045.31;5077562;28;47178;-79
2023/03/14 05:04:19;;;;;;;;;3.33;3.33;;;;;13.17;100.00;99048.44;5079394;27;45350;-79
2023/03/14 05:06:44;;;;;;;;;3.33;3.00;;;;;13.21;100.00;99067.47;5079936;28;45284;-79
2023/03/14 05:09:09;;;;;;;;;4.00;2.00;;;;;12.92;100.00;99017.47;5079202;28;46299;-79
2023/03/14 05:11:35;;;;;;;;;0.67;0.67;;;;;13.21;100.00;99080.78;5082261;28;47933;-80
2023/03/14 05:14:00;;;;;;;;;1.00;1.00;;;;;13.15;100.00;99081.72;5084582;28;45283;-81
2023/03/14 05:16:25;;;;;;;;;1.00;1.00;;;;;13.18;100.00;99103.41;5080836;28;45437;-79
2023/03/14 05:18:53;;;;;;;;;1.00;1.00;;;;;13.16;100.00;99118.00;5080621;28;45514;-79
2023/03/14 05:21:19;;;;;;;;;0.00;0.00;;;;;12.97;100.00;99104.78;5081214;28;45488;-80
2023/03/14 05:23:44;;;;;;;;;0.67;0.67;;;;;13.01;100.00;99132.63;5082324;28;45196;-80
2023/03/14 05:26:09;;;;;;;;;0.67;0.67;;;;;12.93;100.00;99151.63;5079515;27;45474;-79
2023/03/14 05:28:35;;;;;;;;;1.00;1.00;;;;;12.81;100.00;99167.59;5080601;27;45370;-79
2023/03/14 05:31:00;;;;;;;;;1.00;1.00;;;;;12.68;100.00;99188.06;5065697;27;45346;-80
2023/03/14 05:33:25;;;;;;;;;2.33;2.00;;;;;12.52;100.00;99178.84;5080228;27;45385;-80
2023/03/14 05:35:51;;;;;;;;;5.00;4.67;;;;;12.53;100.00;99220.44;5080005;28;45345;-80
2023/03/14 05:38:16;;;;;;;;;9.33;9.33;;;;;12.34;100.00;99209.81;5078503;28;50448;-79
2023/03/14 05:40:41;;;;;;;;;14.00;12.00;;;;;12.39;100.00;99226.97;5079714;27;45284;-82
2023/03/14 05:43:08;;;;;;;;;17.67;14.00;;;;;12.33;100.00;99242.81;5079359;27;45210;-79
2023/03/14 05:45:35;;;;;;;;;5.00;3.00;;;;;12.27;100.00;99246.34;5080619;27;45389;-81
2023/03/14 05:48:00;;;;;;;;;4.00;4.00;;;;;12.14;100.00;99243.84;5080631;27;45536;-82
2023/03/14 05:50:25;;;;;;;;;6.00;5.00;;;;;12.12;100.00;99260.03;5078941;28;48354;-80
2023/03/14 05:52:51;;;;;;;;;3.33;3.33;;;;;11.98;100.00;99262.81;5080128;28;45772;-81
2023/03/14 05:55:16;;;;;;;;;7.00;6.33;;;;;11.96;100.00;99274.72;5079321;28;45385;-81
2023/03/14 05:57:41;;;;;;;;;9.00;7.67;;;;;11.91;100.00;99291.34;5078774;27;56511;-82
2023/03/14 06:00:07;;;;;;;;;3.00;3.00;;;;;11.81;100.00;99289.19;5079446;27;45498;-82
2023/03/14 06:02:33;;;;;;;;;6.67;5.00;;;;;11.73;100.00;99303.56;5078773;28;45374;-80
2023/03/14 06:04:58;;;;;;;;;7.33;5.33;;;;;11.68;100.00;99311.41;5083724;27;45341;-83
2023/03/14 06:07:23;;;;;;;;;4.67;4.00;;;;;11.68;100.00;99316.75;5080639;28;45583;-83
2023/03/14 06:09:48;;;;;;;;;4.00;3.67;;;;;11.53;100.00;99330.34;5079573;28;54416;-82
2023/03/14 06:12:14;;;;;;;;;4.00;4.00;;;;;11.55;100.00;99346.09;5079250;28;56249;-79
2023/03/14 06:14:39;;;;;;;;;4.67;4.67;;;;;11.40;100.00;99347.19;5081013;28;45246;-79
2023/03/14 06:17:04;;;;;;;;;4.67;3.67;;;;;11.26;100.00;99346.47;5082111;28;49314;-79
2023/03/14 06:19:30;;;;;;;;;5.67;5.67;;;;;11.33;100.00;99365.03;5082107;27;46051;-79
2023/03/14 06:21:55;;;;;;;;;4.00;4.00;;;;;11.26;100.00;99357.13;5080546;28;45718;-79
2023/03/14 06:24:20;;;;;;;;;6.00;5.00;;;;;11.28;100.00;99378.19;5082517;28;45255;-79
2023/03/14 06:26:45;;;;;;;;;5.33;4.00;;;;;11.26;100.00;99388.19;5082795;28;45327;-79
2023/03/14 06:29:11;;;;;;;;;3.33;2.33;;;;;11.27;100.00;99400.47;5082723;27;46322;-79
2023/03/14 06:31:36;;;;;;;;;5.00;4.00;;;;;11.24;100.00;99407.03;5069627;27;45187;-79
2023/03/14 06:34:01;;;;;;;;;5.00;3.00;;;;;11.30;100.00;99431.97;5081708;28;45244;-78
2023/03/14 06:36:27;;;;;;;;;3.00;3.00;;;;;11.20;100.00;99429.75;5083357;27;45466;-79
2023/03/14 06:38:52;;;;;;;;;4.33;4.33;;;;;11.17;100.00;99433.66;5082005;28;45430;-81
2023/03/14 06:41:18;;;;;;;;;4.00;4.00;;;;;11.20;100.00;99453.69;5081432;28;45416;-78
2023/03/14 06:43:43;;;;;;;;;4.00;4.00;;;;;11.16;100.00;99463.91;5081695;27;45623;-78
2023/03/14 06:46:08;;;;;;;;;4.67;4.00;;;;;11.06;100.00;99467.03;5079896;28;47260;-78
2023/03/14 06:48:34;;;;;;;;;4.00;4.00;;;;;11.08;100.00;99485.44;5080225;28;52471;-78
2023/03/14 06:50:59;;;;;;;;;2.33;2.33;;;;;11.03;100.00;99504.66;5081118;28;52151;-77
2023/03/14 06:53:24;;;;;;;;;5.33;5.00;;;;;10.96;100.00;99507.31;5080792;27;45551;-77
2023/03/14 06:55:50;;;;;;;;;4.33;3.33;;;;;10.97;100.00;99516.13;5078568;28;61726;-78
2023/03/14 06:58:15;;;;;;;;;3.00;3.00;;;;;10.98;100.00;99521.25;5080688;28;48307;-77
2023/03/14 07:00:40;;;;;;;;;3.00;3.00;;;;;10.97;100.00;99540.88;5081737;28;45282;-77
2023/03/14 07:03:06;;;;;;;;;5.00;5.00;;;;;10.93;100.00;99552.13;5081861;28;45344;-76
2023/03/14 07:05:31;;;;;;;;;5.67;5.67;;;;;10.82;100.00;99551.72;5081668;28;45582;-76
2023/03/14 07:07:56;;;;;;;;;3.67;2.67;;;;;10.91;100.00;99568.28;5081319;28;47996;-78
2023/03/14 07:10:22;;;;;;;;;5.00;5.00;;;;;11.00;100.00;99582.19;5081711;28;45247;-77
2023/03/14 07:12:47;;;;;;;;;4.67;3.00;;;;;10.96;100.00;99583.63;5081169;27;45276;-78
2023/03/14 07:15:12;;;;;;;;;3.33;3.33;;;;;10.95;100.00;99588.09;5079564;28;47312;-77
2023/03/14 07:17:38;;;;;;;;;4.00;4.00;;;;;11.05;100.00;99621.44;5081194;27;46025;-78
2023/03/14 07:20:04;;;;;;;;;4.67;4.00;;;;;10.97;100.00;99619.81;5081247;27;45404;-78
2023/03/14 07:22:30;;;;;;;;;5.67;3.67;;;;;11.04;100.00;99625.13;5080879;27;45242;-76
2023/03/14 07:24:56;;;;;;;;;3.00;3.00;;;;;11.03;100.00;99639.44;5080320;27;45697;-77
2023/03/14 07:27:21;;;;;;;;;4.00;3.00;;;;;11.01;100.00;99650.28;5080534;27;45208;-77
2023/03/14 07:29:46;;;;;;;;;5.33;4.00;;;;;10.99;100.00;99660.31;5081053;28;45591;-76
2023/03/14 07:32:14;;;;;;;;;6.33;4.33;;;;;10.97;100.00;99665.84;5082538;27;45326;-78
2023/03/14 07:34:43;;;;;;;;;4.00;3.67;;;;;10.94;100.00;99676.03;5072421;27;47042;-77
2023/03/14 07:37:09;;;;;;;;;1.00;1.00;;;;;10.88;100.00;99668.88;5079504;27;45650;-78
2023/03/14 07:39:34;;;;;;;;;6.33;6.00;;;;;10.94;100.00;99697.31;5079812;28;45480;-78
2023/03/14 07:42:00;;;;;;;;;3.00;2.00;;;;;10.85;100.00;99699.34;5081262;28;45176;-78
2023/03/14 07:44:26;;;;;;;;;1.67;1.67;;;;;10.83;100.00;99704.84;5080490;28;45590;-76
2023/03/14 07:46:51;;;;;;;;;7.67;6.00;;;;;10.77;100.00;99708.31;5081642;27;45301;-77
2023/03/14 07:49:17;;;;;;;;;7.00;3.67;;;;;10.76;100.00;99719.97;5080360;28;45299;-77
2023/03/14 07:51:43;;;;;;;;;3.67;3.67;;;;;10.76;100.00;99746.56;5080008;28;45207;-78
2023/03/14 07:54:09;;;;;;;;;3.00;3.00;;;;;10.75;100.00;99741.44;5080490;27;45392;-77
2023/03/14 07:56:34;;;;;;;;;4.00;2.33;;;;;10.73;100.00;99747.78;5068807;27;47129;-77
2023/03/14 07:59:00;;;;;;;;;2.00;1.00;;;;;10.70;100.00;99747.34;5077780;28;54775;-78
2023/03/14 08:01:25;;;;;;;;;3.00;3.00;;;;;10.82;100.00;99767.03;5081178;28;45653;-77
2023/03/14 08:03:50;;;;;;;;;4.33;2.67;;;;;10.83;100.00;99767.81;5079949;28;58541;-78
2023/03/14 08:06:16;;;;;;;;;2.00;2.00;;;;;10.77;100.00;99784.59;5078655;28;57067;-79
2023/03/14 08:08:41;;;;;;;;;3.33;2.00;;;;;10.75;100.00;99765.34;5079449;27;45345;-77
2023/03/14 08:11:10;;;;;;;;;4.67;1.67;;;;;10.87;100.00;99800.97;5078535;27;46712;-77
2023/03/14 08:13:36;;;;;;;;;3.00;2.00;;;;;10.83;99.74;99786.44;5079264;28;45481;-77
2023/03/14 08:16:02;;;;;;;;;2.33;2.00;;;;;10.87;100.00;99795.66;5080812;27;46341;-80
2023/03/14 08:18:27;;;;;;;;;3.00;2.00;;;;;10.87;100.00;99803.63;5080154;27;45235;-78
2023/03/14 08:20:53;;;;;;;;;3.00;2.00;;;;;10.90;100.00;99805.91;5080858;27;45252;-78
2023/03/14 08:23:18;;;;;;;;;2.00;2.00;;;;;10.93;99.67;99821.44;5079709;27;53554;-76
2023/03/14 08:25:43;;;;;;;;;2.00;2.00;;;;;10.96;98.46;99847.63;5078077;28;60999;-77
2023/03/14 08:28:08;;;;;;;;;2.67;2.67;;;;;10.92;98.41;99811.81;5075021;28;47331;-79
2023/03/14 08:30:34;;;;;;;;;4.33;3.00;;;;;11.07;100.00;99843.56;5079393;28;45454;-78
2023/03/14 08:33:00;;;;;;;;;4.00;3.33;;;;;11.10;99.85;99834.38;5078060;27;45395;-79
2023/03/14 08:35:26;;;;;;;;;2.00;1.00;;;;;11.18;99.35;99854.66;5064745;28;46308;-79
2023/03/14 08:37:52;;;;;;;;;2.67;2.00;;;;;11.14;96.96;99848.09;5071019;28;45287;-78
2023/03/14 08:40:17;;;;;;;;;2.67;2.67;;;;;11.24;97.40;99857.34;5072064;28;45343;-78
2023/03/14 08:42:45;;;;;;;;;2.00;2.00;;;;;11.19;97.39;99843.00;5064151;28;45400;-78
2023/03/14 08:45:13;;;;;;;;;5.00;2.67;;;;;11.29;98.48;99856.75;5072024;28;45239;-77
2023/03/14 08:47:38;;;;;;;;;2.00;1.00;;;;;11.36;98.12;99862.91;5074135;28;45725;-77
2023/03/14 08:50:05;;;;;;;;;1.00;1.00;;;;;11.35;94.31;99869.22;5076569;27;45653;-78
2023/03/14 08:52:32;;;;;;;;;2.33;1.00;;;;;11.41;94.41;99880.94;5075081;28;45563;-78
2023/03/14 08:54:58;;;;;;;;;2.00;0.00;;;;;11.42;94.83;99884.38;5078916;28;45377;-77
2023/03/14 08:57:27;;;;;;;;;2.67;2.00;;;;;11.47;92.37;99880.09;5077091;28;45319;-77
2023/03/14 08:59:56;;;;;;;;;1.33;1.00;;;;;11.58;94.45;99894.66;5074345;28;45314;-78
2023/03/14 09:02:23;;;;;;;;;3.00;1.00;;;;;11.52;90.71;99876.03;5074673;27;45520;-78
2023/03/14 09:04:50;;;;;;;;;3.00;1.67;;;;;11.61;92.71;99875.63;5065986;27;47349;-78
2023/03/14 09:07:15;;;;;;;;;4.00;2.33;;;;;11.75;92.57;99899.59;5068432;27;45509;-79
2023/03/14 09:09:41;;;;;;;;;3.00;3.00;;;;;11.82;92.51;99915.59;5076578;27;45318;-76
2023/03/14 09:12:06;;;;;;;;;1.33;1.33;;;;;11.95;92.38;99918.28;5066471;27;46385;-76
2023/03/14 09:14:31;;;;;;;;;3.33;2.33;;;;;12.02;92.41;99920.09;5067340;27;45299;-76
2023/03/14 09:16:57;;;;;;;;;5.00;2.33;;;;;12.10;91.35;99914.63;5073725;28;45159;-77
2023/03/14 09:19:22;;;;;;;;;3.00;3.00;;;;;12.28;93.43;99915.84;5079458;27;45426;-78
2023/03/14 09:21:48;;;;;;;;;2.00;2.00;;;;;12.49;93.30;99931.59;5065640;27;45400;-77
2023/03/14 09:24:14;;;;;;;;;3.00;2.00;;;;;12.52;89.96;99921.56;5076807;28;47296;-76
2023/03/14 09:26:39;;;;;;;;;2.00;2.00;;;;;12.62;91.26;99933.44;5077348;28;45482;-76
2023/03/14 09:29:04;;;;;;;;;4.00;1.33;;;;;12.52;89.51;99927.72;5079874;27;45353;-78
2023/03/14 09:31:30;;;;;;;;;2.67;2.67;;;;;12.53;91.66;99936.53;5081509;27;45574;-76
2023/03/14 09:33:55;;;;;;;;;3.33;3.00;;;;;12.43;90.33;99940.44;5082079;28;47023;-78
2023/03/14 09:36:21;;;;;;;;;2.33;2.33;;;;;12.39;91.58;99944.53;5079961;28;45428;-77
2023/03/14 09:38:46;;;;;;;;;3.67;3.67;;;;;12.39;91.82;99959.72;5074836;27;45365;-77
2023/03/14 09:41:17;;;;;;;;;2.33;2.33;;;;;12.33;91.91;99946.19;5062721;28;45463;-76
2023/03/14 09:43:45;;;;;;;;;4.00;3.00;;;;;12.43;92.36;99972.44;5071739;28;45364;-77
2023/03/14 09:46:11;;;;;;;;;2.00;2.00;;;;;12.50;93.97;99985.72;5077957;28;45444;-77
2023/03/14 09:48:37;;;;;;;;;3.00;2.00;;;;;12.49;95.27;99976.09;5075822;28;46237;-76
2023/03/14 09:51:13;;;;;;;;;2.00;2.00;;;;;12.53;95.52;100005.81;5072813;27;51581;-77
2023/03/14 09:53:42;;;;;;;;;2.00;2.00;;;;;12.54;97.08;100004.81;5071840;27;48287;-78
2023/03/14 09:56:19;;;;;;;;;2.00;2.00;;;;;12.51;98.66;100024.69;5076430;27;45404;-78
2023/03/14 09:58:51;;;;;;;;;2.67;2.67;;;;;12.44;99.50;100024.69;5074252;28;45419;-77
2023/03/14 10:01:22;;;;;;;;;1.00;1.00;;;;;12.36;99.61;100041.69;5075461;27;45334;-78
2023/03/14 10:03:48;;;;;;;;;2.33;2.00;;;;;12.22;100.00;100059.50;5077586;28;48257;-78
2023/03/14 10:06:15;;;;;;;;;1.00;1.00;;;;;12.10;100.00;100059.25;5067461;27;45399;-76
2023/03/14 10:08:44;;;;;;;;;2.00;2.00;;;;;12.03;100.00;100060.25;5070289;27;45264;-77
2023/03/14 10:11:17;;;;;;;;;2.00;1.00;;;;;11.92;100.00;100067.81;5061292;28;47448;-78
2023/03/14 10:14:06;;;;;;;;;2.67;2.67;;;;;11.97;100.00;100075.16;5074220;28;47304;-76
2023/03/14 10:16:37;;;;;;;;;1.00;1.00;;;;;12.09;100.00;100072.81;5070751;28;45487;-77
2023/03/14 10:19:05;;;;;;;;;2.67;2.00;;;;;12.19;100.00;100073.25;5064249;27;45497;-76
2023/03/14 10:21:37;;;;;;;;;1.00;1.00;;;;;12.25;100.00;100082.25;5064051;28;46558;-78
2023/03/14 10:24:27;;;;;;;;;2.00;2.00;;;;;12.25;100.00;100095.59;5074303;28;47486;-76
2023/03/14 10:27:17;;;;;;;;;2.00;2.00;;;;;12.17;100.00;100101.09;5082599;27;46104;-76
2023/03/14 10:29:54;;;;;;;;;3.00;1.00;;;;;12.06;99.84;100110.47;5076793;27;45279;-77
2023/03/14 10:32:20;;;;;;;;;0.00;0.00;;;;;11.89;100.00;100115.31;5070911;27;45499;-78
2023/03/14 10:35:15;;;;;;;;;1.00;1.00;;;;;11.83;100.00;100123.03;5067969;27;46276;-77
2023/03/14 10:37:56;;;;;;;;;3.00;1.67;;;;;11.87;100.00;100139.47;5068223;27;45429;-76
2023/03/14 10:40:28;;;;;;;;;2.00;2.00;;;;;11.96;100.00;100138.28;5060809;28;45355;-76
2023/03/14 10:42:55;;;;;;;;;4.00;2.00;;;;;11.98;100.00;100116.78;5075708;28;45542;-76
2023/03/14 10:45:36;;;;;;;;;3.67;3.00;;;;;12.14;100.00;100144.94;5070863;27;45615;-77
2023/03/14 10:48:21;;;;;;;;;1.00;1.00;;;;;12.30;100.00;100151.75;5063643;28;45627;-76
2023/03/14 10:50:56;;;;;;;;;2.33;2.00;;;;;12.23;100.00;100151.72;5074231;27;45373;-76
2023/03/14 10:53:21;;;;;;;;;4.33;3.00;;;;;12.15;99.75;100159.88;5070998;27;46118;-77
2023/03/14 10:55:47;;;;;;;;;4.00;3.00;;;;;12.09;97.92;100163.38;5062721;28;48157;-76
2023/03/14 10:58:22;;;;;;;;;1.00;1.00;;;;;12.10;98.89;100159.69;5075232;28;45447;-75
2023/03/14 11:00:54;;;;;;;;;2.67;1.67;;;;;12.12;99.44;100168.28;5067633;27;45559;-76
2023/03/14 11:03:20;;;;;;;;;0.67;0.67;;;;;12.17;98.22;100175.66;5073845;28;45559;-77
2023/03/14 11:06:14;;;;;;;;;2.33;1.00;;;;;12.37;97.70;100170.44;5069340;28;47288;-76
2023/03/14 11:08:51;;;;;;;;;3.67;3.00;;;;;12.56;95.26;100178.66;5080412;27;45375;-77
2023/03/14 11:11:25;;;;;;;;;4.00;1.67;;;;;12.74;96.49;100178.94;5070571;27;45396;-76
2023/03/14 11:14:06;;;;;;;;;2.00;2.00;;;;;12.90;93.05;100181.41;5077675;27;46957;-78
2023/03/14 11:16:51;;;;;;;;;4.00;4.00;;;;;13.06;92.56;100180.19;5080438;28;45669;-78
2023/03/14 11:19:46;;;;;;;;;3.00;3.00;;;;;13.18;91.47;100175.06;5065463;28;45266;-79
2023/03/14 11:22:23;;;;;;;;;4.33;2.33;;;;;13.45;93.27;100172.38;5073079;28;45587;-78
2023/03/14 11:25:15;;;;;;;;;4.00;2.00;;;;;13.61;90.97;100168.47;5070065;28;45609;-77
2023/03/14 11:27:44;;;;;;;;;3.67;3.00;;;;;13.65;88.08;100169.72;5071600;28;47658;-77